Time;durP1;ratioP1;P1;durP2;ratioP2;P2;SDS_P1;SDS_P2;PMS_P1;PMS_P2;Temp;Humidity;BMP_temperature;BMP_pressure;BME280_temperature;BME280_humidity;BME280_pressure;Samples;Min_cycle;Max_cycle;Signal;HPM_P1;HPM_P2
2022/03/10 02:34:42;;;;;;;35.95;14.95;;;;;;;-0.66;80.65;102190.06;5002738;28;20046;-96
2022/03/10 02:37:59;;;;;;;;;;;;;;;;;;;;;
2022/03/10 02:40:42;;;;;;;35.17;15.25;;;;;;;-0.81;81.32;102189.75;5021890;23;20078;-96
2022/03/10 02:43:30;;;;;;;;;;;;;;;;;;;;;
2022/03/10 02:46:08;;;;;;;34.28;15.10;;;;;;;-0.93;81.64;102189.16;5007474;28;20448;-96
2022/03/10 02:52:11;;;;;;;38.10;15.13;;;;;;;-1.00;82.21;102201.22;5010563;28;20045;-96
2022/03/10 02:54:40;;;;;;;37.73;15.20;;;;;;;-1.09;82.72;102185.34;4982107;28;20069;-95
2022/03/10 03:00:19;;;;;;;35.00;15.65;;;;;;;-1.13;82.36;102186.63;5478541;23;20326;-96
2022/03/10 03:05:58;;;;;;;39.28;15.93;;;;;;;-1.20;83.04;102187.34;4978868;28;20095;-95
2022/03/10 03:08:57;;;;;;;37.65;15.88;;;;;;;-1.13;83.06;102205.03;4978879;28;20071;-96
2022/03/10 03:11:56;;;;;;;37.38;15.40;;;;;;;-1.12;83.31;102196.19;4945875;29;20099;-95
2022/03/10 03:14:49;;;;;;;38.80;15.63;;;;;;;-1.24;83.57;102189.44;4942404;29;20054;-95
2022/03/10 03:17:45;;;;;;;;;;;;;;;;;;;;;
2022/03/10 03:20:17;;;;;;;35.67;15.30;;;;;;;-0.97;84.17;102209.66;4941586;29;20119;-96
2022/03/10 03:25:53;;;;;;;32.90;14.60;;;;;;;-1.04;83.55;102207.75;4931543;29;20284;-95
2022/03/10 03:28:30;;;;;;;36.47;14.93;;;;;;;-1.04;83.68;102211.22;4944745;29;20055;-95
2022/03/10 03:31:11;;;;;;;40.25;15.32;;;;;;;-1.08;84.09;102204.59;4945855;29;20471;-95
2022/03/10 03:34:12;;;;;;;33.95;14.50;;;;;;;-0.96;83.65;102218.38;4983841;28;20043;-96
2022/03/10 03:37:17;;;;;;;;;;;;;;;;;;;;;
2022/03/10 03:40:08;;;;;;;38.00;14.57;;;;;;;-1.11;83.72;102204.88;5018024;28;20066;-96
2022/03/10 03:42:43;;;;;;;40.28;15.70;;;;;;;-1.16;83.61;102207.13;5019660;28;20010;-96
2022/03/10 03:45:38;;;;;;;37.10;14.70;;;;;;;-1.15;83.72;102225.41;5019835;28;20018;-96
2022/03/10 03:52:09;;;;;;;33.33;14.27;;;;;;;-1.46;83.38;102196.72;4930043;29;20039;-96
2022/03/10 03:55:19;;;;;;;34.47;14.57;;;;;;;-1.37;84.28;102218.72;4926206;28;20591;-95
2022/03/10 04:01:35;;;;;;;40.40;15.70;;;;;;;-1.38;84.23;102231.03;4969436;29;20038;-96
2022/03/10 04:04:06;;;;;;;37.60;15.07;;;;;;;-1.53;85.27;102208.78;4970082;29;20548;-96
2022/03/10 04:10:07;;;;;;;33.97;14.13;;;;;;;-1.58;83.95;102226.78;5047179;28;20049;-96
2022/03/10 04:13:09;;;;;;;37.53;14.60;;;;;;;-1.69;84.53;102230.41;5050250;28;20085;-96
2022/03/10 04:16:06;;;;;;;30.27;12.77;;;;;;;-1.81;84.77;102227.09;5031647;28;20042;-96
2022/03/10 04:18:34;;;;;;;33.10;13.55;;;;;;;-1.85;84.83;102229.19;5038103;28;20571;-96
2022/03/10 04:21:08;;;;;;;34.57;13.90;;;;;;;-1.92;85.47;102219.38;5040731;23;20104;-96
2022/03/10 04:24:12;;;;;;;35.23;14.40;;;;;;;-1.81;85.69;102244.69;5002659;28;20289;-96
2022/03/10 04:26:51;;;;;;;31.02;13.57;;;;;;;-1.94;85.50;102218.69;5015970;23;20045;-95
2022/03/10 04:29:51;;;;;;;36.40;14.80;;;;;;;-1.97;85.46;102225.06;5025422;28;20033;-96
2022/03/10 04:32:31;;;;;;;36.45;14.40;;;;;;;-1.93;86.06;102241.38;5011342;28;20023;-96
2022/03/10 04:35:32;;;;;;;37.25;14.80;;;;;;;-2.08;85.63;102220.78;5003027;28;20029;-96
2022/03/10 04:38:48;;;;;;;34.92;13.70;;;;;;;-2.13;85.71;102231.72;4980609;28;20031;-96
2022/03/10 04:41:15;;;;;;;39.20;14.65;;;;;;;-2.19;86.31;102231.44;4960897;28;20035;-96
2022/03/10 04:43:58;;;;;;;35.10;15.13;;;;;;;-2.20;86.36;102232.41;4980019;28;20170;-96
2022/03/10 04:49:59;;;;;;;32.00;14.57;;;;;;;-2.11;86.56;102244.72;4996589;28;20033;-96
2022/03/10 04:52:29;;;;;;;38.80;14.57;;;;;;;-2.14;86.91;102237.09;5017774;28;20347;-96
2022/03/10 04:55:00;;;;;;;37.83;14.70;;;;;;;-2.16;87.70;102225.91;5020087;28;20031;-95
2022/03/10 04:57:29;;;;;;;37.20;14.43;;;;;;;-2.03;87.49;102231.72;5027132;28;20030;-96
2022/03/10 05:00:11;;;;;;;;;;;;;;;;;;;;;
2022/03/10 05:03:13;;;;;;;37.38;14.18;;;;;;;-2.15;87.39;102210.00;5001504;28;20098;-96
2022/03/10 05:27:00;;;;;;;38.40;13.57;;;;;;;-2.80;87.70;102235.94;4884499;29;20029;-95
2022/03/10 05:30:18;;;;;;;35.83;13.75;;;;;;;-2.75;88.00;102252.91;4866428;29;20089;-96
2022/03/10 05:32:52;;;;;;;33.88;12.95;;;;;;;-2.84;88.27;102227.50;4921669;29;20047;-96
2022/03/10 05:35:22;;;;;;;33.22;13.48;;;;;;;-2.77;88.51;102235.66;4960843;28;20454;-96
2022/03/10 05:37:51;;;;;;;32.83;13.95;;;;;;;-2.65;88.71;102252.13;5043939;23;20495;-96
2022/03/10 05:40:20;;;;;;;33.83;13.75;;;;;;;-2.78;88.60;102245.31;5039260;28;20022;-96
2022/03/10 05:42:52;;;;;;;36.20;13.73;;;;;;;-2.70;88.71;102259.56;5005048;28;20037;-95
2022/03/10 05:45:33;;;;;;;36.10;13.80;;;;;;;-2.83;88.96;102238.81;5023075;28;20330;-96
2022/03/10 05:48:49;;;;;;;;;;;;;;;;;;;;;
2022/03/10 05:51:20;;;;;;;37.20;15.05;;;;;;;-2.77;88.96;102233.84;5000263;28;20109;-96
2022/03/10 05:54:15;;;;;;;33.33;14.40;;;;;;;-2.78;88.69;102231.38;5001651;28;20404;-96
2022/03/10 05:57:04;;;;;;;38.75;14.43;;;;;;;-2.81;89.06;102234.25;5014142;28;20030;-95
2022/03/10 05:59:44;;;;;;;34.15;13.63;;;;;;;-2.81;88.81;102235.09;5016117;28;20070;-96
2022/03/10 06:02:16;;;;;;;35.80;14.40;;;;;;;-2.79;89.25;102243.66;5001657;28;20026;-94
2022/03/10 06:04:48;;;;;;;34.30;14.45;;;;;;;-2.78;89.28;102247.13;5014678;28;20037;-95
2022/03/10 06:07:18;;;;;;;38.90;16.83;;;;;;;-2.82;89.56;102235.22;5034348;28;20034;-95
2022/03/10 06:09:44;;;;;;;38.47;14.60;;;;;;;-2.72;89.45;102243.94;5034238;28;20120;-95
2022/03/10 06:12:10;;;;;;;39.37;15.30;;;;;;;-2.78;89.80;102240.06;5012131;28;20277;-96
2022/03/10 06:27:36;;;;;;;36.57;15.83;;;;;;;-2.25;89.82;102253.00;4980654;28;20279;-94
2022/03/10 06:43:59;;;;;;;36.75;15.07;;;;;;;-1.65;88.00;102255.44;5329724;23;20086;-94
2022/03/10 06:46:37;;;;;;;38.92;15.15;;;;;;;-1.63;87.68;102256.13;5057299;28;20034;-92
2022/03/10 06:49:02;;;;;;;40.25;15.38;;;;;;;-1.56;87.54;102253.78;5056043;28;20014;-95
2022/03/10 06:51:34;;;;;;;38.77;16.23;;;;;;;-1.56;87.59;102246.72;5054168;28;20021;-95
2022/03/10 06:53:59;;;;;;;40.63;15.32;;;;;;;-1.53;87.42;102254.31;5043488;28;20025;-94
2022/03/10 06:56:46;;;;;;;40.55;15.82;;;;;;;-1.40;86.71;102269.78;5037491;28;20479;-94
2022/03/10 06:59:15;;;;;;;37.00;14.57;;;;;;;-1.38;86.93;102270.47;5036993;28;20033;-93
2022/03/10 07:05:12;;;;;;;42.00;15.57;;;;;;;-1.33;86.46;102263.97;5036154;28;20068;-93
2022/03/10 07:07:46;;;;;;;37.50;15.27;;;;;;;-1.13;85.90;102270.81;4992865;28;20050;-93
2022/03/10 07:10:26;;;;;;;44.92;15.77;;;;;;;-1.02;85.42;102264.53;4992819;28;20035;-93
2022/03/10 07:12:57;;;;;;;37.78;15.60;;;;;;;-0.75;84.45;102278.66;4993398;28;20041;-94
2022/03/10 07:15:38;;;;;;;38.53;15.75;;;;;;;-0.60;83.80;102286.91;5019099;23;20405;-94
2022/03/10 07:18:03;;;;;;;39.70;15.73;;;;;;;-0.55;83.55;102274.13;5014328;28;20045;-94
2022/03/10 07:20:32;;;;;;;32.30;15.13;;;;;;;-0.42;82.74;102275.56;4997022;28;20021;-93
2022/03/10 07:22:58;;;;;;;38.10;14.70;;;;;;;-0.23;82.17;102278.09;5015013;28;20032;-94
2022/03/10 07:25:23;;;;;;;40.40;15.55;;;;;;;-0.04;81.06;102271.00;5004653;28;20105;-93
2022/03/10 07:28:33;;;;;;;37.97;15.23;;;;;;;0.07;80.76;102270.75;4995609;28;20069;-94
2022/03/10 07:32:00;;;;;;;42.58;14.50;;;;;;;0.24;79.91;102257.69;4954240;28;20054;-94
2022/03/10 07:34:28;;;;;;;33.72;13.80;;;;;;;0.43;78.73;102265.41;4869124;29;20057;-93
2022/03/10 07:37:29;;;;;;;34.13;12.80;;;;;;;0.54;78.29;102274.06;4868589;29;20133;-93
2022/03/10 07:43:30;;;;;;;38.70;15.47;;;;;;;0.95;76.64;102282.19;4859621;29;20338;-93
2022/03/10 07:46:23;;;;;;;32.33;14.15;;;;;;;1.12;76.71;102285.75;4953147;28;20070;-94
2022/03/10 07:51:24;;;;;;;37.97;16.33;;;;;;;1.26;75.31;102267.63;5051550;23;20065;-93
2022/03/10 07:53:52;;;;;;;39.20;15.13;;;;;;;1.39;74.56;102267.19;5013894;28;20674;-94
2022/03/10 07:56:42;;;;;;;34.50;14.70;;;;;;;1.62;74.55;102284.09;5059482;23;20062;-93
2022/03/10 07:59:11;;;;;;;36.23;15.67;;;;;;;1.66;73.19;102271.38;5013588;28;20297;-93
2022/03/10 08:01:37;;;;;;;37.33;16.50;;;;;;;1.82;73.08;102275.88;5013999;28;20049;-94
2022/03/10 08:04:19;;;;;;;34.50;15.00;;;;;;;1.88;72.95;102267.25;5013898;28;20381;-95
2022/03/10 08:06:53;;;;;;;38.03;14.75;;;;;;;1.94;72.51;102253.41;5013436;28;20045;-93
2022/03/10 08:09:35;;;;;;;37.58;14.90;;;;;;;2.01;72.46;102260.69;5013385;28;20025;-93
2022/03/10 08:12:12;;;;;;;36.78;15.75;;;;;;;2.11;71.94;102262.13;5013482;28;20105;-94
2022/03/10 08:14:51;;;;;;;37.42;15.95;;;;;;;2.24;71.57;102266.13;5012720;28;20026;-94
2022/03/10 08:17:16;;;;;;;33.00;14.82;;;;;;;2.40;71.04;102286.44;5013457;28;20030;-93
2022/03/10 08:20:03;;;;;;;34.00;14.07;;;;;;;2.52;70.93;102285.09;4995738;28;20030;-93
2022/03/10 08:22:29;;;;;;;39.15;14.48;;;;;;;2.57;70.15;102268.72;5012774;28;20080;-93
2022/03/10 08:25:03;;;;;;;35.67;15.63;;;;;;;2.82;69.75;102285.38;5012969;28;20018;-94
2022/03/10 08:27:40;;;;;;;36.35;14.50;;;;;;;2.95;69.40;102274.25;5012524;28;20083;-93
2022/03/10 08:30:18;;;;;;;33.13;14.30;;;;;;;3.02;69.33;102266.44;5013073;28;20040;-93
2022/03/10 08:33:18;;;;;;;35.80;14.07;;;;;;;3.24;68.71;102285.22;5012217;28;20119;-93
2022/03/10 08:35:53;;;;;;;35.27;13.77;;;;;;;3.35;67.89;102268.91;5012876;28;20073;-94
2022/03/10 08:38:18;;;;;;;37.97;16.20;;;;;;;3.54;67.24;102272.97;5011638;28;20363;-93
2022/03/10 08:40:52;;;;;;;35.58;15.80;;;;;;;3.61;67.17;102262.50;5013191;28;20029;-92
2022/03/10 08:43:31;;;;;;;32.40;13.43;;;;;;;3.76;66.80;102273.13;5012187;28;20028;-93
2022/03/10 08:46:26;;;;;;;37.17;14.40;;;;;;;3.85;66.00;102263.28;5062118;23;20058;-92
2022/03/10 08:51:50;;;;;;;31.33;13.27;;;;;;;4.01;65.92;102259.69;5028916;23;20049;-94
2022/03/10 08:54:30;;;;;;;33.22;13.80;;;;;;;4.23;65.32;102263.31;4968906;28;20038;-93
2022/03/10 08:57:07;;;;;;;41.88;15.95;;;;;;;4.43;64.56;102270.75;5032027;28;20028;-93
2022/03/10 08:59:37;;;;;;;32.13;14.68;;;;;;;4.48;64.50;102258.59;5028804;28;20026;-93
2022/03/10 09:02:03;;;;;;;33.33;14.15;;;;;;;4.58;64.41;102260.16;5012851;28;20052;-92
2022/03/10 09:04:32;;;;;;;32.83;16.10;;;;;;;4.75;63.47;102264.28;5030744;23;20467;-92
2022/03/10 09:07:01;;;;;;;35.53;14.85;;;;;;;4.83;63.49;102264.22;5005555;28;20022;-94
2022/03/10 09:09:45;;;;;;;32.35;15.25;;;;;;;5.03;63.24;102273.44;5008394;28;20025;-95
2022/03/10 09:12:20;;;;;;;35.67;13.93;;;;;;;4.99;63.66;102243.78;5013098;28;20022;-92
2022/03/10 09:14:45;;;;;;;33.60;14.38;;;;;;;5.27;62.73;102265.16;5013059;28;20036;-93
2022/03/10 09:17:11;;;;;;;36.10;14.40;;;;;;;5.38;62.04;102250.56;5011632;28;20109;-93
2022/03/10 09:19:49;;;;;;;36.00;16.27;;;;;;;5.73;60.36;102253.38;4996208;28;20035;-92
2022/03/10 09:22:25;;;;;;;33.30;14.80;;;;;;;5.94;60.05;102256.22;4994265;28;20440;-93
2022/03/10 09:25:02;;;;;;;;;;;;;;;;;;;;;
2022/03/10 09:27:29;;;;;;;34.15;14.73;;;;;;;5.91;59.96;102241.47;4991981;28;20031;-93
2022/03/10 09:32:36;;;;;;;36.22;15.25;;;;;;;6.19;59.31;102236.19;5018507;23;20493;-94
2022/03/10 09:38:16;;;;;;;40.60;16.93;;;;;;;6.61;57.12;102241.56;4973483;28;20887;-94
2022/03/10 09:40:53;;;;;;;34.85;14.88;;;;;;;6.69;57.49;102237.91;4990527;28;20100;-93
2022/03/10 09:46:33;;;;;;;33.90;16.15;;;;;;;6.78;58.11;102238.59;5032496;23;20523;-94
2022/03/10 09:49:44;;;;;;;37.65;15.70;;;;;;;6.91;57.19;102240.50;4999155;28;20018;-93
2022/03/10 09:52:13;;;;;;;35.70;16.02;;;;;;;7.05;57.57;102228.84;4955998;29;20054;-93
2022/03/10 09:54:41;;;;;;;34.50;15.85;;;;;;;7.22;56.76;102225.84;4956796;29;20106;-95
2022/03/10 09:57:37;;;;;;;;;;;;;;;;;;;;;
2022/03/10 10:03:41;;;;;;;35.83;15.43;;;;;;;7.51;56.05;102218.50;4956063;28;20054;-94
2022/03/10 10:06:44;;;;;;;36.50;16.43;;;;;;;7.61;55.61;102210.09;4996943;23;20357;-93
2022/03/10 10:12:15;;;;;;;41.25;15.85;;;;;;;7.85;55.57;102206.03;4917193;29;20039;-94
2022/03/10 10:14:53;;;;;;;36.70;15.77;;;;;;;8.06;55.53;102217.50;4920373;29;20044;-95
2022/03/10 10:17:55;;;;;;;36.72;17.25;;;;;;;8.13;54.79;102204.97;4933452;29;20039;-94
2022/03/10 10:20:56;;;;;;;37.00;15.95;;;;;;;8.28;55.39;102218.91;4907333;29;20157;-94
2022/03/10 10:23:43;;;;;;;31.88;14.88;;;;;;;8.31;54.67;102210.50;4924561;29;20036;-93
2022/03/10 10:26:14;;;;;;;35.05;14.10;;;;;;;8.37;54.55;102202.69;4935439;29;20031;-93
2022/03/10 10:29:06;;;;;;;40.10;16.75;;;;;;;8.49;54.86;102203.69;4936356;29;20086;-94
2022/03/10 10:32:33;;;;;;;30.73;14.53;;;;;;;8.56;54.85;102188.47;4919445;29;20039;-95
2022/03/10 10:38:28;;;;;;;33.28;15.25;;;;;;;8.82;55.00;102191.25;4993929;28;20405;-95
2022/03/10 10:41:14;;;;;;;33.85;16.17;;;;;;;8.89;54.70;102198.22;4978302;28;20033;-94
2022/03/10 10:47:02;;;;;;;33.97;15.80;;;;;;;9.06;54.76;102192.38;4990675;28;20050;-93
2022/03/10 10:52:42;;;;;;;32.13;14.55;;;;;;;9.28;53.03;102178.69;5113404;23;20064;-94
2022/03/10 10:55:47;;;;;;;36.83;16.00;;;;;;;9.47;53.22;102199.13;5032888;28;20025;-94
2022/03/10 11:08:02;;;;;;;37.13;17.02;;;;;;;10.09;51.16;102176.97;5022775;23;20058;-94
2022/03/10 11:10:31;;;;;;;34.33;15.55;;;;;;;10.27;50.83;102164.63;5156602;23;20058;-93
2022/03/10 11:13:41;;;;;;;33.87;16.00;;;;;;;10.34;52.18;102164.56;4960034;28;20250;-93
2022/03/10 11:16:11;;;;;;;33.20;16.50;;;;;;;10.49;50.81;102166.91;4915022;29;20379;-92
2022/03/10 11:18:41;;;;;;;33.22;17.42;;;;;;;10.72;50.68;102172.41;4922221;29;20052;-92
2022/03/10 11:25:46;;;;;;;28.08;14.07;;;;;;;11.14;50.44;102184.19;4921351;29;20062;-93
2022/03/10 11:35:05;;;;;;;27.92;12.10;;;;;;;11.76;49.10;102169.63;5221047;23;20060;-93
2022/03/10 11:38:39;;;;;;;28.67;13.70;;;;;;;11.73;48.85;102153.97;4998656;28;20026;-94
2022/03/10 11:41:05;;;;;;;23.35;12.40;;;;;;;11.96;48.26;102148.63;4982058;28;20100;-93
2022/03/10 11:47:00;;;;;;;26.58;13.38;;;;;;;12.21;47.48;102154.81;5017393;28;20041;-92
2022/03/10 11:49:53;;;;;;;27.00;15.85;;;;;;;12.27;47.84;102143.13;5009411;28;20038;-95
2022/03/10 11:56:11;;;;;;;30.40;14.98;;;;;;;12.44;47.40;102140.50;5064380;23;20454;-93
2022/03/10 11:58:39;;;;;;;30.67;12.95;;;;;;;12.47;47.20;102126.56;5048915;28;20029;-93
2022/03/10 12:01:26;;;;;;;28.35;13.48;;;;;;;12.56;47.31;102117.09;5057342;28;20002;-91
2022/03/10 12:04:39;;;;;;;23.73;13.23;;;;;;;12.69;46.58;102123.22;5234051;23;20049;-93
2022/03/10 12:07:15;;;;;;;27.30;13.87;;;;;;;12.76;46.34;102123.09;5036399;28;20278;-93
2022/03/10 12:10:11;;;;;;;25.98;13.10;;;;;;;12.88;47.30;102121.97;5036123;28;20041;-94
2022/03/10 12:12:39;;;;;;;28.35;14.07;;;;;;;12.98;46.19;102115.13;5014806;28;20036;-92
2022/03/10 12:15:55;;;;;;;23.70;12.25;;;;;;;13.11;47.20;102122.09;5016240;28;20041;-93
2022/03/10 12:18:38;;;;;;;25.25;12.85;;;;;;;13.21;45.87;102105.28;4935369;29;20414;-93
2022/03/10 12:21:39;;;;;;;28.02;13.63;;;;;;;13.38;45.48;102118.78;4914731;29;20837;-94
2022/03/10 12:24:44;;;;;;;28.80;14.30;;;;;;;13.44;44.65;102102.47;5112265;23;20053;-93
2022/03/10 12:27:25;;;;;;;23.63;11.80;;;;;;;13.57;45.05;102103.19;5039982;28;20072;-94
2022/03/10 12:30:31;;;;;;;25.08;12.98;;;;;;;13.66;44.42;102088.25;5054318;28;20029;-92
2022/03/10 12:35:41;;;;;;;29.60;13.43;;;;;;;13.67;43.91;102068.34;5122547;23;20299;-94
2022/03/10 12:38:13;;;;;;;26.08;13.77;;;;;;;13.74;43.90;102077.03;5044236;28;20087;-93
2022/03/10 12:40:58;;;;;;;;;;;;;;;;;;;;;
2022/03/10 12:43:44;;;;;;;25.38;13.65;;;;;;;13.78;43.52;102064.72;5044229;28;20041;-92
2022/03/10 12:49:07;;;;;;;24.60;13.05;;;;;;;13.87;43.14;102053.50;5036463;28;20034;-91
2022/03/10 12:51:39;;;;;;;24.13;13.32;;;;;;;14.00;42.87;102050.44;5036461;28;20086;-92
2022/03/10 12:54:07;;;;;;;29.25;14.65;;;;;;;14.09;42.19;102048.13;5034998;28;20085;-92
2022/03/10 13:01:07;;;;;;;28.20;14.73;;;;;;;14.16;41.28;102056.00;5033421;28;20068;-92
2022/03/10 13:03:13;;;;;;;27.20;13.80;;;;;;;14.09;41.62;102040.03;5027154;28;20316;-93
2022/03/10 13:05:44;;;;;;;28.65;13.52;;;;;;;14.22;42.32;102057.69;5033683;28;20014;-92
2022/03/10 13:08:12;;;;;;;29.52;15.30;;;;;;;14.19;41.46;102037.44;5032719;28;20029;-92
2022/03/10 13:11:10;;;;;;;25.40;13.55;;;;;;;14.34;41.75;102054.84;5033267;28;20021;-93
2022/03/10 13:14:10;;;;;;;26.98;14.43;;;;;;;14.28;41.50;102045.88;5032556;28;20388;-93
2022/03/10 13:16:44;;;;;;;30.30;13.02;;;;;;;14.26;40.84;102041.84;5026500;28;20022;-92
2022/03/10 13:19:55;;;;;;;28.42;14.45;;;;;;;14.11;41.65;102026.28;5013238;28;20140;-92
2022/03/10 13:22:26;;;;;;;25.92;14.10;;;;;;;14.04;41.42;102023.78;4983712;28;20129;-91
2022/03/10 13:24:58;;;;;;;25.15;13.45;;;;;;;14.04;41.50;102026.50;4990413;28;20049;-91
2022/03/10 13:27:23;;;;;;;31.80;14.40;;;;;;;14.05;40.62;102010.09;5016307;28;20068;-92
2022/03/10 13:29:52;;;;;;;27.73;14.43;;;;;;;14.07;41.50;102015.22;5032395;28;20284;-91
2022/03/10 13:32:38;;;;;;;25.35;13.52;;;;;;;14.21;41.24;102029.13;5033421;28;20056;-91
2022/03/10 13:35:07;;;;;;;28.25;13.82;;;;;;;14.22;41.07;102011.88;5032113;28;20033;-92
2022/03/10 13:37:35;;;;;;;32.40;14.05;;;;;;;14.30;41.05;101999.81;5025450;28;20030;-92
2022/03/10 13:40:08;;;;;;;30.43;13.57;;;;;;;14.30;41.47;102000.63;5012912;28;20018;-92
2022/03/10 13:43:22;;;;;;;26.97;15.70;;;;;;;14.34;41.27;101993.66;5027935;28;21060;-92
2022/03/10 13:45:50;;;;;;;30.15;14.45;;;;;;;14.35;40.74;102000.69;4970965;28;20047;-93
2022/03/10 13:48:34;;;;;;;29.55;15.07;;;;;;;14.30;41.07;101989.84;4971369;28;20071;-92
2022/03/10 13:51:14;;;;;;;25.80;13.38;;;;;;;14.41;41.07;102008.81;4954728;28;20177;-92
2022/03/10 13:54:04;;;;;;;28.67;14.85;;;;;;;14.29;40.59;101990.91;5015011;23;20049;-92
2022/03/10 13:56:49;;;;;;;25.65;15.70;;;;;;;14.39;40.41;102001.81;5032022;28;20021;-91
2022/03/10 13:59:27;;;;;;;26.80;14.30;;;;;;;14.33;40.14;101988.53;5008140;28;20708;-92
2022/03/10 14:02:02;;;;;;;29.80;13.73;;;;;;;14.33;40.01;101986.63;4995249;28;20085;-92
2022/03/10 14:04:42;;;;;;;26.30;14.07;;;;;;;14.38;40.57;101975.09;5011861;28;20022;-92
2022/03/10 14:07:23;;;;;;;25.87;13.03;;;;;;;14.36;39.81;101975.34;5018713;28;20104;-92
2022/03/10 14:10:16;;;;;;;28.00;15.03;;;;;;;14.36;39.48;101988.84;5031591;28;20303;-92
2022/03/10 14:12:42;;;;;;;27.95;14.77;;;;;;;14.37;39.89;101986.94;5025531;28;20073;-92
2022/03/10 14:15:34;;;;;;;24.42;14.45;;;;;;;14.35;40.54;101979.13;5013743;28;20068;-91
2022/03/10 14:18:24;;;;;;;27.50;13.95;;;;;;;14.39;40.01;101977.53;5014031;28;20329;-92
2022/03/10 14:21:27;;;;;;;25.60;14.60;;;;;;;14.38;39.61;101965.13;5033063;28;20049;-93
2022/03/10 14:26:38;;;;;;;28.37;14.47;;;;;;;14.55;39.53;101974.97;5035019;28;20284;-92
2022/03/10 14:29:06;;;;;;;27.02;14.35;;;;;;;14.51;39.68;101965.75;5035861;28;20037;-92
2022/03/10 14:31:32;;;;;;;27.52;13.60;;;;;;;14.57;39.88;101972.84;5034235;28;20037;-93
2022/03/10 14:34:08;;;;;;;26.05;14.60;;;;;;;14.54;40.09;101952.56;5034895;28;20034;-92
2022/03/10 14:36:36;;;;;;;29.20;14.23;;;;;;;14.57;39.14;101951.25;5032295;28;20095;-92
2022/03/10 14:39:12;;;;;;;25.23;13.13;;;;;;;14.54;39.04;101943.69;5034322;28;20060;-92
2022/03/10 14:41:40;;;;;;;27.02;14.05;;;;;;;14.56;38.47;101960.41;5038056;23;20310;-92
2022/03/10 14:44:17;;;;;;;30.00;13.65;;;;;;;14.46;39.57;101944.13;5014750;28;20041;-91
2022/03/10 14:46:54;;;;;;;30.47;13.10;;;;;;;14.55;39.43;101939.91;5015168;28;20036;-92
2022/03/10 14:49:20;;;;;;;26.60;12.98;;;;;;;14.60;38.77;101939.13;5015658;28;20029;-92
2022/03/10 14:51:54;;;;;;;23.95;13.18;;;;;;;14.61;38.23;101933.47;5013694;28;20117;-91
2022/03/10 14:54:31;;;;;;;25.83;12.77;;;;;;;14.64;38.51;101930.25;5013551;28;20049;-91
2022/03/10 14:57:10;;;;;;;25.92;14.15;;;;;;;14.59;38.50;101924.84;5015087;28;20034;-92
2022/03/10 14:59:45;;;;;;;30.88;12.75;;;;;;;14.64;38.23;101930.25;5016355;28;20384;-92
2022/03/10 15:02:23;;;;;;;28.20;14.30;;;;;;;14.56;38.23;101919.13;5015947;28;20022;-92
2022/03/10 15:04:57;;;;;;;27.38;13.25;;;;;;;14.58;37.76;101923.22;4998420;28;20026;-91
2022/03/10 15:07:51;;;;;;;26.33;13.20;;;;;;;14.48;38.22;101904.25;5013897;28;20034;-92
2022/03/10 15:10:20;;;;;;;26.35;13.05;;;;;;;14.45;37.89;101915.53;4974319;28;20125;-91
2022/03/10 15:13:08;;;;;;;;;;;;;;;;;;;;;
2022/03/10 15:15:36;;;;;;;27.85;13.75;;;;;;;14.56;37.41;101919.13;4973208;28;20027;-92
2022/03/10 15:18:08;;;;;;;29.13;12.63;;;;;;;14.51;38.26;101901.88;4954947;28;20187;-90
2022/03/10 15:20:43;;;;;;;30.10;13.00;;;;;;;14.58;38.56;101914.31;4995611;28;20305;-92
2022/03/10 15:23:10;;;;;;;25.33;12.85;;;;;;;14.51;37.95;101903.75;4994274;28;20560;-91
2022/03/10 15:25:41;;;;;;;25.90;13.32;;;;;;;14.43;38.05;101898.81;4994883;28;20060;-92
2022/03/10 15:28:21;;;;;;;;;;;;;;;;;;;;;
2022/03/10 15:30:54;;;;;;;26.95;13.88;;;;;;;14.33;38.35;101897.66;4996203;28;20041;-93
2022/03/10 15:33:31;;;;;;;25.73;13.88;;;;;;;14.31;38.23;101894.41;4994107;28;20022;-91
2022/03/10 15:36:00;;;;;;;27.08;13.13;;;;;;;14.29;38.13;101906.53;5004606;28;20359;-92
2022/03/10 15:38:31;;;;;;;26.40;13.50;;;;;;;14.18;38.39;101900.25;4994009;28;20393;-92
2022/03/10 15:40:59;;;;;;;24.92;14.00;;;;;;;14.08;39.42;101888.28;4994362;28;20492;-93
2022/03/10 15:43:38;;;;;;;27.23;13.37;;;;;;;14.13;38.83;101897.50;4993080;28;20445;-92
2022/03/10 15:46:13;;;;;;;31.03;14.00;;;;;;;14.02;39.32;101886.63;4976535;28;20814;-92
2022/03/10 15:48:55;;;;;;;27.00;13.95;;;;;;;13.96;39.84;101887.63;4994632;28;20139;-93
2022/03/10 15:51:39;;;;;;;31.13;15.20;;;;;;;13.93;39.56;101898.91;4976734;28;20094;-92
2022/03/10 15:54:07;;;;;;;31.10;13.88;;;;;;;13.89;40.44;101890.53;4984865;28;20117;-92
2022/03/10 15:56:58;;;;;;;31.98;15.90;;;;;;;13.93;39.58;101896.22;5012978;28;20129;-92
2022/03/10 15:59:27;;;;;;;28.73;14.40;;;;;;;13.83;40.23;101879.97;4995892;28;20029;-92
2022/03/10 16:02:26;;;;;;;28.55;15.20;;;;;;;13.84;40.19;101881.59;5014106;28;20019;-93
2022/03/10 16:04:55;;;;;;;27.92;13.52;;;;;;;13.81;39.98;101866.72;5020650;23;20049;-92
2022/03/10 16:08:00;;;;;;;28.67;13.60;;;;;;;13.77;39.80;101879.91;5013960;28;20030;-93
2022/03/10 16:10:27;;;;;;;30.63;14.77;;;;;;;13.77;40.03;101874.50;5003313;28;20457;-92
2022/03/10 16:13:01;;;;;;;32.13;15.53;;;;;;;13.64;39.76;101866.84;5025545;23;20392;-92
2022/03/10 16:15:39;;;;;;;49.95;15.30;;;;;;;13.55;40.39;101869.19;5013821;28;20022;-95
2022/03/10 16:18:09;;;;;;;32.85;15.52;;;;;;;13.46;40.13;101870.66;5014502;28;20040;-93
2022/03/10 16:20:47;;;;;;;31.70;15.00;;;;;;;13.43;40.28;101879.25;4997497;28;20060;-93
2022/03/10 16:26:16;;;;;;;27.02;14.18;;;;;;;13.39;40.13;101888.88;5054562;23;20127;-92
2022/03/10 16:29:07;;;;;;;30.48;15.02;;;;;;;13.29;40.72;101859.97;5032547;28;20037;-93
2022/03/10 16:31:42;;;;;;;32.20;15.63;;;;;;;13.21;41.12;101868.47;5032501;28;20499;-93
2022/03/10 16:34:07;;;;;;;32.22;15.02;;;;;;;13.08;41.34;101869.63;5014813;28;20341;-93
2022/03/10 16:36:33;;;;;;;32.10;14.77;;;;;;;13.05;40.61;101865.56;5097052;23;20042;-91
2022/03/10 16:38:58;;;;;;;32.73;15.10;;;;;;;13.05;40.39;101854.00;5014044;28;20166;-92
2022/03/10 16:44:33;;;;;;;31.58;15.48;;;;;;;13.04;41.07;101861.25;4991742;28;20069;-91
2022/03/10 16:47:14;;;;;;;32.70;14.88;;;;;;;12.83;41.26;101852.91;5009529;28;20022;-90
2022/03/10 16:49:42;;;;;;;30.42;14.98;;;;;;;12.81;41.02;101868.47;5007546;28;20023;-93
2022/03/10 16:52:07;;;;;;;37.67;15.88;;;;;;;12.66;41.00;101849.44;5013032;23;20045;-91
2022/03/10 16:57:46;;;;;;;32.80;15.77;;;;;;;12.38;40.99;101853.88;4963954;28;20113;-92
2022/03/10 17:00:45;;;;;;;33.72;15.55;;;;;;;12.33;41.42;101867.22;4996007;28;20437;-90
2022/03/10 17:03:11;;;;;;;34.78;15.88;;;;;;;12.23;40.89;101868.66;5001256;28;20094;-91
2022/03/10 17:08:14;;;;;;;30.45;15.05;;;;;;;11.89;40.43;101863.22;5061309;23;20508;-91
2022/03/10 17:10:40;;;;;;;33.50;15.73;;;;;;;11.74;40.97;101865.63;5036801;28;20053;-92
2022/03/10 17:13:09;;;;;;;31.43;14.70;;;;;;;11.62;40.17;101857.63;5018312;28;20063;-92
2022/03/10 17:15:38;;;;;;;33.75;15.23;;;;;;;11.52;40.51;101861.75;5015569;28;20029;-93
2022/03/10 17:18:32;;;;;;;30.52;14.65;;;;;;;11.43;40.54;101848.94;5033193;28;20099;-93
2022/03/10 17:21:02;;;;;;;29.63;13.55;;;;;;;11.26;40.19;101855.06;5019317;28;20038;-93
2022/03/10 17:26:59;;;;;;;29.52;14.65;;;;;;;11.01;41.41;101847.28;5030503;28;20044;-93
2022/03/10 17:29:24;;;;;;;30.67;14.32;;;;;;;10.95;40.02;101853.59;5035140;28;20032;-95
2022/03/10 17:32:07;;;;;;;25.27;13.40;;;;;;;10.83;40.15;101853.59;5034632;28;20025;-95
2022/03/10 17:34:36;;;;;;;28.58;13.50;;;;;;;10.65;41.09;101858.03;5008522;28;20030;-94
2022/03/10 17:37:17;;;;;;;26.55;12.77;;;;;;;10.60;41.12;101863.25;5036913;28;20025;-95
2022/03/10 17:39:43;;;;;;;23.40;12.53;;;;;;;10.37;42.20;101853.31;5034761;28;20041;-94
2022/03/10 17:42:14;;;;;;;23.10;11.63;;;;;;;10.33;41.55;101858.31;5000647;28;20291;-95
2022/03/10 17:44:44;;;;;;;27.00;11.57;;;;;;;10.26;41.10;101852.25;5033522;28;20028;-95